sensor_id;sensor_type;location;lat;lon;timestamp;P1;durP1;ratioP1;P2;durP2;ratioP2
79562;SDS011;69026;50.980;11.314;2023-05-25T00:00:10;3.15;;;1.88;;
79562;SDS011;69026;50.980;11.314;2023-05-25T00:02:37;3.72;;;1.45;;
79562;SDS011;69026;50.980;11.314;2023-05-25T00:05:11;4.97;;;1.50;;
79562;SDS011;69026;50.980;11.314;2023-05-25T00:07:37;2.63;;;1.55;;
79562;SDS011;69026;50.980;11.314;2023-05-25T00:10:04;4.03;;;1.70;;
79562;SDS011;69026;50.980;11.314;2023-05-25T00:12:31;3.65;;;1.60;;
79562;SDS011;69026;50.980;11.314;2023-05-25T00:14:58;4.90;;;1.58;;
79562;SDS011;69026;50.980;11.314;2023-05-25T00:17:24;3.03;;;1.70;;
79562;SDS011;69026;50.980;11.314;2023-05-25T00:19:49;3.20;;;1.60;;
79562;SDS011;69026;50.980;11.314;2023-05-25T00:22:15;2.55;;;1.65;;
79562;SDS011;69026;50.980;11.314;2023-05-25T00:24:41;2.75;;;1.60;;
79562;SDS011;69026;50.980;11.314;2023-05-25T00:27:07;3.15;;;1.17;;
79562;SDS011;69026;50.980;11.314;2023-05-25T00:29:33;3.10;;;1.40;;
79562;SDS011;69026;50.980;11.314;2023-05-25T00:32:00;2.30;;;1.60;;
79562;SDS011;69026;50.980;11.314;2023-05-25T00:34:27;2.15;;;1.38;;
79562;SDS011;69026;50.980;11.314;2023-05-25T00:36:53;2.83;;;1.40;;
79562;SDS011;69026;50.980;11.314;2023-05-25T00:39:19;1.63;;;1.30;;
79562;SDS011;69026;50.980;11.314;2023-05-25T00:41:46;2.08;;;1.33;;
79562;SDS011;69026;50.980;11.314;2023-05-25T00:44:13;1.88;;;1.50;;
79562;SDS011;69026;50.980;11.314;2023-05-25T00:46:44;2.20;;;1.60;;
79562;SDS011;69026;50.980;11.314;2023-05-25T00:49:12;1.92;;;1.50;;
79562;SDS011;69026;50.980;11.314;2023-05-25T00:51:39;3.03;;;1.38;;
79562;SDS011;69026;50.980;11.314;2023-05-25T00:54:06;3.35;;;1.52;;
79562;SDS011;69026;50.980;11.314;2023-05-25T00:56:32;3.17;;;1.60;;
79562;SDS011;69026;50.980;11.314;2023-05-25T00:59:03;2.28;;;1.40;;
79562;SDS011;69026;50.980;11.314;2023-05-25T01:01:33;2.70;;;1.50;;
79562;SDS011;69026;50.980;11.314;2023-05-25T01:04:07;2.10;;;1.42;;
79562;SDS011;69026;50.980;11.314;2023-05-25T01:06:35;2.80;;;1.33;;
79562;SDS011;69026;50.980;11.314;2023-05-25T01:09:04;2.22;;;1.55;;
79562;SDS011;69026;50.980;11.314;2023-05-25T01:11:34;2.63;;;1.33;;
79562;SDS011;69026;50.980;11.314;2023-05-25T01:14:01;3.15;;;1.50;;
79562;SDS011;69026;50.980;11.314;2023-05-25T01:16:27;2.03;;;1.45;;
79562;SDS011;69026;50.980;11.314;2023-05-25T01:18:54;2.05;;;1.30;;
79562;SDS011;69026;50.980;11.314;2023-05-25T01:21:22;1.95;;;1.10;;
79562;SDS011;69026;50.980;11.314;2023-05-25T01:24:04;2.40;;;1.48;;
79562;SDS011;69026;50.980;11.314;2023-05-25T01:26:54;3.15;;;1.50;;
79562;SDS011;69026;50.980;11.314;2023-05-25T01:29:26;1.88;;;1.48;;
79562;SDS011;69026;50.980;11.314;2023-05-25T01:31:53;1.88;;;1.20;;
79562;SDS011;69026;50.980;11.314;2023-05-25T01:34:22;2.55;;;1.35;;
79562;SDS011;69026;50.980;11.314;2023-05-25T01:36:49;2.30;;;1.20;;
79562;SDS011;69026;50.980;11.314;2023-05-25T01:39:15;2.60;;;1.35;;
79562;SDS011;69026;50.980;11.314;2023-05-25T01:41:41;1.75;;;1.20;;
79562;SDS011;69026;50.980;11.314;2023-05-25T01:44:07;1.88;;;1.40;;
79562;SDS011;69026;50.980;11.314;2023-05-25T01:46:36;1.70;;;1.40;;
79562;SDS011;69026;50.980;11.314;2023-05-25T01:54:39;2.45;;;1.52;;
79562;SDS011;69026;50.980;11.314;2023-05-25T01:57:12;2.60;;;1.33;;
79562;SDS011;69026;50.980;11.314;2023-05-25T01:59:43;1.63;;;1.20;;
79562;SDS011;69026;50.980;11.314;2023-05-25T02:02:11;1.88;;;1.30;;
79562;SDS011;69026;50.980;11.314;2023-05-25T02:04:40;2.95;;;1.35;;
79562;SDS011;69026;50.980;11.314;2023-05-25T02:07:08;1.60;;;1.10;;
79562;SDS011;69026;50.980;11.314;2023-05-25T02:09:34;2.22;;;1.48;;
79562;SDS011;69026;50.980;11.314;2023-05-25T02:11:59;1.70;;;1.30;;
79562;SDS011;69026;50.980;11.314;2023-05-25T02:14:25;3.15;;;1.65;;
79562;SDS011;69026;50.980;11.314;2023-05-25T02:16:52;2.88;;;1.35;;
79562;SDS011;69026;50.980;11.314;2023-05-25T02:19:18;2.78;;;1.58;;
79562;SDS011;69026;50.980;11.314;2023-05-25T02:21:44;2.70;;;1.35;;
79562;SDS011;69026;50.980;11.314;2023-05-25T02:24:10;2.03;;;1.40;;
79562;SDS011;69026;50.980;11.314;2023-05-25T02:26:36;1.45;;;1.13;;
79562;SDS011;69026;50.980;11.314;2023-05-25T02:29:04;1.98;;;1.08;;
79562;SDS011;69026;50.980;11.314;2023-05-25T02:31:31;1.95;;;1.20;;
79562;SDS011;69026;50.980;11.314;2023-05-25T02:33:57;2.05;;;1.20;;
79562;SDS011;69026;50.980;11.314;2023-05-25T02:36:24;2.08;;;1.17;;
79562;SDS011;69026;50.980;11.314;2023-05-25T02:38:51;2.55;;;1.40;;
79562;SDS011;69026;50.980;11.314;2023-05-25T02:41:18;2.67;;;1.35;;
79562;SDS011;69026;50.980;11.314;2023-05-25T02:43:44;1.92;;;1.27;;
79562;SDS011;69026;50.980;11.314;2023-05-25T02:46:10;2.05;;;1.40;;
79562;SDS011;69026;50.980;11.314;2023-05-25T02:48:36;2.35;;;1.00;;
79562;SDS011;69026;50.980;11.314;2023-05-25T02:51:02;1.92;;;1.13;;
79562;SDS011;69026;50.980;11.314;2023-05-25T02:53:28;1.70;;;1.10;;
79562;SDS011;69026;50.980;11.314;2023-05-25T02:55:55;1.70;;;1.05;;
79562;SDS011;69026;50.980;11.314;2023-05-25T02:58:24;1.15;;;0.93;;
79562;SDS011;69026;50.980;11.314;2023-05-25T03:01:16;2.65;;;1.30;;
79562;SDS011;69026;50.980;11.314;2023-05-25T03:03:46;2.33;;;1.30;;
79562;SDS011;69026;50.980;11.314;2023-05-25T03:06:17;2.55;;;1.40;;
79562;SDS011;69026;50.980;11.314;2023-05-25T03:08:44;1.83;;;1.10;;
79562;SDS011;69026;50.980;11.314;2023-05-25T03:11:10;2.63;;;1.40;;
79562;SDS011;69026;50.980;11.314;2023-05-25T03:13:37;1.92;;;1.08;;
79562;SDS011;69026;50.980;11.314;2023-05-25T03:16:03;2.65;;;1.15;;
79562;SDS011;69026;50.980;11.314;2023-05-25T03:18:29;2.28;;;1.40;;
79562;SDS011;69026;50.980;11.314;2023-05-25T03:20:55;1.77;;;1.10;;
79562;SDS011;69026;50.980;11.314;2023-05-25T03:23:21;2.05;;;1.38;;
79562;SDS011;69026;50.980;11.314;2023-05-25T03:25:49;2.30;;;1.45;;
79562;SDS011;69026;50.980;11.314;2023-05-25T03:28:16;2.00;;;1.42;;
79562;SDS011;69026;50.980;11.314;2023-05-25T03:30:42;1.65;;;1.17;;
79562;SDS011;69026;50.980;11.314;2023-05-25T03:33:08;1.95;;;1.30;;
79562;SDS011;69026;50.980;11.314;2023-05-25T03:35:42;2.17;;;1.40;;
79562;SDS011;69026;50.980;11.314;2023-05-25T03:38:11;2.00;;;1.20;;
79562;SDS011;69026;50.980;11.314;2023-05-25T03:40:37;2.00;;;1.35;;
79562;SDS011;69026;50.980;11.314;2023-05-25T03:43:02;1.83;;;1.30;;
79562;SDS011;69026;50.980;11.314;2023-05-25T03:45:28;1.63;;;1.30;;
79562;SDS011;69026;50.980;11.314;2023-05-25T03:47:54;1.58;;;1.25;;
79562;SDS011;69026;50.980;11.314;2023-05-25T03:50:20;1.67;;;1.10;;
79562;SDS011;69026;50.980;11.314;2023-05-25T03:52:46;1.90;;;1.40;;
79562;SDS011;69026;50.980;11.314;2023-05-25T03:55:12;1.58;;;0.90;;
79562;SDS011;69026;50.980;11.314;2023-05-25T03:57:41;2.38;;;1.55;;
79562;SDS011;69026;50.980;11.314;2023-05-25T04:00:07;2.97;;;1.30;;
79562;SDS011;69026;50.980;11.314;2023-05-25T04:02:38;2.30;;;1.40;;
79562;SDS011;69026;50.980;11.314;2023-05-25T04:05:04;2.55;;;1.27;;
79562;SDS011;69026;50.980;11.314;2023-05-25T04:07:31;1.60;;;1.30;;
79562;SDS011;69026;50.980;11.314;2023-05-25T04:09:57;1.88;;;1.30;;
79562;SDS011;69026;50.980;11.314;2023-05-25T04:12:24;2.17;;;1.17;;
79562;SDS011;69026;50.980;11.314;2023-05-25T04:14:51;1.70;;;1.10;;
79562;SDS011;69026;50.980;11.314;2023-05-25T04:17:17;2.65;;;1.52;;
79562;SDS011;69026;50.980;11.314;2023-05-25T04:19:46;2.85;;;1.67;;
79562;SDS011;69026;50.980;11.314;2023-05-25T04:22:13;3.17;;;1.48;;
79562;SDS011;69026;50.980;11.314;2023-05-25T04:24:40;2.65;;;1.60;;
79562;SDS011;69026;50.980;11.314;2023-05-25T04:27:06;1.80;;;1.42;;
79562;SDS011;69026;50.980;11.314;2023-05-25T04:29:32;2.85;;;1.85;;
79562;SDS011;69026;50.980;11.314;2023-05-25T04:32:00;2.60;;;1.38;;
79562;SDS011;69026;50.980;11.314;2023-05-25T04:34:42;2.17;;;1.45;;
79562;SDS011;69026;50.980;11.314;2023-05-25T04:37:33;1.63;;;1.25;;
79562;SDS011;69026;50.980;11.314;2023-05-25T04:40:01;1.90;;;1.35;;
79562;SDS011;69026;50.980;11.314;2023-05-25T04:42:39;2.28;;;1.67;;
79562;SDS011;69026;50.980;11.314;2023-05-25T04:45:06;1.88;;;1.27;;
79562;SDS011;69026;50.980;11.314;2023-05-25T04:47:34;2.67;;;1.50;;
79562;SDS011;69026;50.980;11.314;2023-05-25T04:50:02;2.08;;;1.40;;
79562;SDS011;69026;50.980;11.314;2023-05-25T04:52:28;2.10;;;1.35;;
79562;SDS011;69026;50.980;11.314;2023-05-25T04:54:54;1.85;;;1.45;;
79562;SDS011;69026;50.980;11.314;2023-05-25T04:57:20;3.00;;;2.00;;
79562;SDS011;69026;50.980;11.314;2023-05-25T04:59:47;3.63;;;1.73;;
79562;SDS011;69026;50.980;11.314;2023-05-25T05:02:13;2.22;;;1.40;;
79562;SDS011;69026;50.980;11.314;2023-05-25T05:04:40;2.25;;;1.35;;
79562;SDS011;69026;50.980;11.314;2023-05-25T05:07:07;1.45;;;1.08;;
79562;SDS011;69026;50.980;11.314;2023-05-25T05:09:33;2.70;;;1.85;;
79562;SDS011;69026;50.980;11.314;2023-05-25T05:12:00;2.88;;;1.70;;
79562;SDS011;69026;50.980;11.314;2023-05-25T05:14:28;2.47;;;1.60;;
79562;SDS011;69026;50.980;11.314;2023-05-25T05:16:54;2.33;;;1.50;;
79562;SDS011;69026;50.980;11.314;2023-05-25T05:19:20;2.42;;;1.48;;
79562;SDS011;69026;50.980;11.314;2023-05-25T05:21:47;3.80;;;1.40;;
79562;SDS011;69026;50.980;11.314;2023-05-25T05:24:15;1.55;;;1.20;;
79562;SDS011;69026;50.980;11.314;2023-05-25T05:26:40;2.47;;;1.27;;
79562;SDS011;69026;50.980;11.314;2023-05-25T05:29:07;2.25;;;1.55;;
79562;SDS011;69026;50.980;11.314;2023-05-25T05:31:34;3.03;;;1.70;;
79562;SDS011;69026;50.980;11.314;2023-05-25T05:34:01;2.78;;;1.63;;
79562;SDS011;69026;50.980;11.314;2023-05-25T05:36:27;2.67;;;1.40;;
79562;SDS011;69026;50.980;11.314;2023-05-25T05:38:55;2.08;;;1.40;;
79562;SDS011;69026;50.980;11.314;2023-05-25T05:41:21;2.40;;;1.48;;
79562;SDS011;69026;50.980;11.314;2023-05-25T05:43:48;3.50;;;1.48;;
79562;SDS011;69026;50.980;11.314;2023-05-25T05:46:14;1.83;;;1.38;;
79562;SDS011;69026;50.980;11.314;2023-05-25T05:48:40;2.90;;;1.30;;
79562;SDS011;69026;50.980;11.314;2023-05-25T05:51:06;1.67;;;1.20;;
79562;SDS011;69026;50.980;11.314;2023-05-25T05:53:32;2.58;;;2.00;;
79562;SDS011;69026;50.980;11.314;2023-05-25T05:56:01;1.48;;;1.08;;
79562;SDS011;69026;50.980;11.314;2023-05-25T05:58:27;3.20;;;1.55;;
79562;SDS011;69026;50.980;11.314;2023-05-25T06:00:55;2.85;;;1.75;;
79562;SDS011;69026;50.980;11.314;2023-05-25T06:03:22;1.83;;;1.20;;
79562;SDS011;69026;50.980;11.314;2023-05-25T06:05:48;1.90;;;1.30;;
79562;SDS011;69026;50.980;11.314;2023-05-25T06:08:15;1.63;;;1.30;;
79562;SDS011;69026;50.980;11.314;2023-05-25T06:10:41;3.50;;;1.55;;
79562;SDS011;69026;50.980;11.314;2023-05-25T06:13:07;2.05;;;1.20;;
79562;SDS011;69026;50.980;11.314;2023-05-25T06:15:33;2.33;;;1.50;;
79562;SDS011;69026;50.980;11.314;2023-05-25T06:18:02;2.40;;;1.50;;
79562;SDS011;69026;50.980;11.314;2023-05-25T06:20:29;2.30;;;1.50;;
79562;SDS011;69026;50.980;11.314;2023-05-25T06:22:55;2.92;;;1.50;;
79562;SDS011;69026;50.980;11.314;2023-05-25T06:25:21;2.20;;;1.50;;
79562;SDS011;69026;50.980;11.314;2023-05-25T06:27:47;2.42;;;1.42;;
79562;SDS011;69026;50.980;11.314;2023-05-25T06:30:13;2.83;;;1.83;;
79562;SDS011;69026;50.980;11.314;2023-05-25T06:32:39;1.90;;;1.50;;
79562;SDS011;69026;50.980;11.314;2023-05-25T06:35:07;2.45;;;1.70;;
79562;SDS011;69026;50.980;11.314;2023-05-25T06:37:34;2.00;;;1.48;;
79562;SDS011;69026;50.980;11.314;2023-05-25T06:40:03;2.53;;;1.65;;
79562;SDS011;69026;50.980;11.314;2023-05-25T06:42:30;4.30;;;1.70;;
79562;SDS011;69026;50.980;11.314;2023-05-25T06:44:56;2.85;;;1.52;;
79562;SDS011;69026;50.980;11.314;2023-05-25T06:47:24;3.13;;;1.70;;
79562;SDS011;69026;50.980;11.314;2023-05-25T06:49:50;6.63;;;1.70;;
79562;SDS011;69026;50.980;11.314;2023-05-25T06:52:15;4.20;;;1.60;;
79562;SDS011;69026;50.980;11.314;2023-05-25T06:54:41;5.10;;;1.95;;
79562;SDS011;69026;50.980;11.314;2023-05-25T06:57:07;3.38;;;1.73;;
79562;SDS011;69026;50.980;11.314;2023-05-25T06:59:33;3.78;;;1.88;;
79562;SDS011;69026;50.980;11.314;2023-05-25T07:01:59;3.90;;;1.70;;
79562;SDS011;69026;50.980;11.314;2023-05-25T07:04:24;5.45;;;2.15;;
79562;SDS011;69026;50.980;11.314;2023-05-25T07:06:51;4.38;;;1.85;;
79562;SDS011;69026;50.980;11.314;2023-05-25T07:09:17;4.88;;;1.83;;
79562;SDS011;69026;50.980;11.314;2023-05-25T07:11:46;3.90;;;2.03;;
79562;SDS011;69026;50.980;11.314;2023-05-25T07:14:12;3.42;;;1.77;;
79562;SDS011;69026;50.980;11.314;2023-05-25T07:16:38;5.85;;;1.95;;
79562;SDS011;69026;50.980;11.314;2023-05-25T07:19:03;7.80;;;2.15;;
79562;SDS011;69026;50.980;11.314;2023-05-25T07:21:30;4.18;;;1.75;;
79562;SDS011;69026;50.980;11.314;2023-05-25T07:23:57;4.38;;;1.80;;
79562;SDS011;69026;50.980;11.314;2023-05-25T07:26:22;5.13;;;1.85;;
79562;SDS011;69026;50.980;11.314;2023-05-25T07:28:50;4.97;;;1.83;;
79562;SDS011;69026;50.980;11.314;2023-05-25T07:31:15;8.07;;;2.28;;
79562;SDS011;69026;50.980;11.314;2023-05-25T07:33:42;3.83;;;1.88;;
79562;SDS011;69026;50.980;11.314;2023-05-25T07:36:08;4.97;;;2.63;;
79562;SDS011;69026;50.980;11.314;2023-05-25T07:38:34;3.03;;;2.10;;
79562;SDS011;69026;50.980;11.314;2023-05-25T07:41:01;4.05;;;2.22;;
79562;SDS011;69026;50.980;11.314;2023-05-25T07:43:27;4.32;;;1.70;;
79562;SDS011;69026;50.980;11.314;2023-05-25T07:45:53;3.42;;;1.70;;
79562;SDS011;69026;50.980;11.314;2023-05-25T07:48:19;5.55;;;2.17;;
79562;SDS011;69026;50.980;11.314;2023-05-25T07:50:44;6.35;;;2.45;;
79562;SDS011;69026;50.980;11.314;2023-05-25T07:53:10;2.80;;;2.03;;
79562;SDS011;69026;50.980;11.314;2023-05-25T07:55:36;6.30;;;2.65;;
79562;SDS011;69026;50.980;11.314;2023-05-25T07:58:02;6.55;;;3.13;;
79562;SDS011;69026;50.980;11.314;2023-05-25T08:00:28;5.15;;;2.83;;
79562;SDS011;69026;50.980;11.314;2023-05-25T08:02:54;5.35;;;2.72;;
79562;SDS011;69026;50.980;11.314;2023-05-25T08:05:20;6.80;;;2.63;;
79562;SDS011;69026;50.980;11.314;2023-05-25T08:07:46;5.50;;;2.72;;
79562;SDS011;69026;50.980;11.314;2023-05-25T08:10:12;3.67;;;1.75;;
79562;SDS011;69026;50.980;11.314;2023-05-25T08:12:38;4.13;;;2.10;;
79562;SDS011;69026;50.980;11.314;2023-05-25T08:15:04;2.47;;;1.92;;
79562;SDS011;69026;50.980;11.314;2023-05-25T08:17:31;3.67;;;2.03;;
79562;SDS011;69026;50.980;11.314;2023-05-25T08:19:56;6.07;;;2.60;;
79562;SDS011;69026;50.980;11.314;2023-05-25T08:22:22;4.22;;;2.45;;
79562;SDS011;69026;50.980;11.314;2023-05-25T08:24:48;5.15;;;2.40;;
79562;SDS011;69026;50.980;11.314;2023-05-25T08:27:14;5.35;;;2.33;;
79562;SDS011;69026;50.980;11.314;2023-05-25T08:29:40;5.00;;;2.20;;
79562;SDS011;69026;50.980;11.314;2023-05-25T08:32:06;3.95;;;2.13;;
79562;SDS011;69026;50.980;11.314;2023-05-25T08:34:32;5.82;;;2.40;;
79562;SDS011;69026;50.980;11.314;2023-05-25T08:36:58;3.60;;;2.20;;
79562;SDS011;69026;50.980;11.314;2023-05-25T08:39:24;3.47;;;2.15;;
79562;SDS011;69026;50.980;11.314;2023-05-25T08:41:51;2.83;;;2.00;;
79562;SDS011;69026;50.980;11.314;2023-05-25T08:44:17;5.75;;;2.20;;
79562;SDS011;69026;50.980;11.314;2023-05-25T08:46:45;4.38;;;2.10;;
79562;SDS011;69026;50.980;11.314;2023-05-25T08:49:14;5.03;;;2.33;;
79562;SDS011;69026;50.980;11.314;2023-05-25T08:51:58;3.13;;;2.33;;
79562;SDS011;69026;50.980;11.314;2023-05-25T08:54:28;3.05;;;2.15;;
79562;SDS011;69026;50.980;11.314;2023-05-25T09:00:04;5.65;;;2.03;;
79562;SDS011;69026;50.980;11.314;2023-05-25T09:05:19;3.50;;;1.80;;
79562;SDS011;69026;50.980;11.314;2023-05-25T09:07:45;4.18;;;2.42;;
79562;SDS011;69026;50.980;11.314;2023-05-25T09:10:11;5.63;;;2.60;;
79562;SDS011;69026;50.980;11.314;2023-05-25T09:12:37;6.95;;;2.30;;
79562;SDS011;69026;50.980;11.314;2023-05-25T09:15:03;3.85;;;2.25;;
79562;SDS011;69026;50.980;11.314;2023-05-25T09:17:30;5.47;;;2.35;;
79562;SDS011;69026;50.980;11.314;2023-05-25T09:19:56;3.60;;;2.20;;
79562;SDS011;69026;50.980;11.314;2023-05-25T09:22:23;4.15;;;2.03;;
79562;SDS011;69026;50.980;11.314;2023-05-25T09:24:49;6.40;;;2.72;;
79562;SDS011;69026;50.980;11.314;2023-05-25T09:27:16;6.82;;;2.38;;
79562;SDS011;69026;50.980;11.314;2023-05-25T09:29:47;4.25;;;2.20;;
79562;SDS011;69026;50.980;11.314;2023-05-25T09:32:14;5.85;;;2.10;;
79562;SDS011;69026;50.980;11.314;2023-05-25T09:34:44;4.15;;;2.53;;
79562;SDS011;69026;50.980;11.314;2023-05-25T09:37:11;3.00;;;2.17;;
79562;SDS011;69026;50.980;11.314;2023-05-25T09:39:41;7.07;;;2.13;;
79562;SDS011;69026;50.980;11.314;2023-05-25T09:42:07;4.10;;;2.17;;
79562;SDS011;69026;50.980;11.314;2023-05-25T09:44:33;4.25;;;1.90;;
79562;SDS011;69026;50.980;11.314;2023-05-25T09:47:00;5.95;;;2.20;;
79562;SDS011;69026;50.980;11.314;2023-05-25T09:49:26;4.43;;;2.00;;
79562;SDS011;69026;50.980;11.314;2023-05-25T09:51:52;3.90;;;2.00;;
79562;SDS011;69026;50.980;11.314;2023-05-25T09:54:17;4.82;;;2.00;;
79562;SDS011;69026;50.980;11.314;2023-05-25T09:56:43;3.58;;;1.95;;
79562;SDS011;69026;50.980;11.314;2023-05-25T09:59:10;5.93;;;2.85;;
79562;SDS011;69026;50.980;11.314;2023-05-25T10:01:36;3.95;;;2.10;;
79562;SDS011;69026;50.980;11.314;2023-05-25T10:04:02;3.75;;;2.17;;
79562;SDS011;69026;50.980;11.314;2023-05-25T10:06:29;3.45;;;2.20;;
79562;SDS011;69026;50.980;11.314;2023-05-25T10:08:57;3.83;;;2.30;;
79562;SDS011;69026;50.980;11.314;2023-05-25T10:11:24;4.63;;;2.13;;
79562;SDS011;69026;50.980;11.314;2023-05-25T10:13:52;3.78;;;2.20;;
79562;SDS011;69026;50.980;11.314;2023-05-25T10:16:21;4.32;;;1.95;;
79562;SDS011;69026;50.980;11.314;2023-05-25T10:19:09;4.07;;;2.15;;
79562;SDS011;69026;50.980;11.314;2023-05-25T10:25:13;4.05;;;2.10;;
79562;SDS011;69026;50.980;11.314;2023-05-25T10:27:41;3.13;;;1.67;;
79562;SDS011;69026;50.980;11.314;2023-05-25T10:32:38;5.72;;;2.33;;
79562;SDS011;69026;50.980;11.314;2023-05-25T10:35:05;5.97;;;1.80;;
79562;SDS011;69026;50.980;11.314;2023-05-25T10:37:33;4.53;;;2.15;;
79562;SDS011;69026;50.980;11.314;2023-05-25T10:39:59;2.78;;;1.77;;
79562;SDS011;69026;50.980;11.314;2023-05-25T10:42:26;3.90;;;2.10;;
79562;SDS011;69026;50.980;11.314;2023-05-25T10:44:52;6.28;;;2.10;;
79562;SDS011;69026;50.980;11.314;2023-05-25T10:47:19;4.75;;;2.17;;
79562;SDS011;69026;50.980;11.314;2023-05-25T10:49:52;4.03;;;2.47;;
79562;SDS011;69026;50.980;11.314;2023-05-25T10:52:19;6.88;;;2.20;;
79562;SDS011;69026;50.980;11.314;2023-05-25T10:54:46;3.80;;;2.22;;
79562;SDS011;69026;50.980;11.314;2023-05-25T10:57:19;10.80;;;2.95;;
79562;SDS011;69026;50.980;11.314;2023-05-25T11:00:08;7.65;;;2.85;;
79562;SDS011;69026;50.980;11.314;2023-05-25T11:02:49;8.02;;;3.33;;
79562;SDS011;69026;50.980;11.314;2023-05-25T11:07:57;7.22;;;2.88;;
79562;SDS011;69026;50.980;11.314;2023-05-25T11:13:21;4.90;;;2.67;;
79562;SDS011;69026;50.980;11.314;2023-05-25T11:18:44;5.68;;;2.42;;
79562;SDS011;69026;50.980;11.314;2023-05-25T11:21:13;5.45;;;2.30;;
79562;SDS011;69026;50.980;11.314;2023-05-25T11:23:53;6.05;;;2.63;;
79562;SDS011;69026;50.980;11.314;2023-05-25T11:26:24;7.13;;;2.65;;
79562;SDS011;69026;50.980;11.314;2023-05-25T11:28:54;4.05;;;1.92;;
79562;SDS011;69026;50.980;11.314;2023-05-25T11:31:28;3.75;;;1.95;;
79562;SDS011;69026;50.980;11.314;2023-05-25T11:33:58;5.97;;;2.00;;
79562;SDS011;69026;50.980;11.314;2023-05-25T11:36:29;8.02;;;2.10;;
79562;SDS011;69026;50.980;11.314;2023-05-25T11:38:58;3.33;;;1.85;;
79562;SDS011;69026;50.980;11.314;2023-05-25T11:41:26;6.00;;;2.20;;
79562;SDS011;69026;50.980;11.314;2023-05-25T11:46:21;3.65;;;2.08;;
79562;SDS011;69026;50.980;11.314;2023-05-25T11:48:50;3.65;;;2.05;;
79562;SDS011;69026;50.980;11.314;2023-05-25T11:51:22;4.07;;;2.00;;
79562;SDS011;69026;50.980;11.314;2023-05-25T11:53:49;6.40;;;2.47;;
79562;SDS011;69026;50.980;11.314;2023-05-25T11:56:16;4.40;;;2.38;;
79562;SDS011;69026;50.980;11.314;2023-05-25T11:58:43;4.80;;;2.22;;
79562;SDS011;69026;50.980;11.314;2023-05-25T12:01:14;5.30;;;2.05;;
79562;SDS011;69026;50.980;11.314;2023-05-25T12:03:44;3.92;;;1.98;;
79562;SDS011;69026;50.980;11.314;2023-05-25T12:06:27;3.70;;;2.38;;
79562;SDS011;69026;50.980;11.314;2023-05-25T12:08:55;4.60;;;2.00;;
79562;SDS011;69026;50.980;11.314;2023-05-25T12:11:28;5.18;;;2.05;;
79562;SDS011;69026;50.980;11.314;2023-05-25T12:16:31;4.00;;;1.92;;
79562;SDS011;69026;50.980;11.314;2023-05-25T12:18:59;4.95;;;2.15;;
79562;SDS011;69026;50.980;11.314;2023-05-25T12:21:26;6.57;;;1.90;;
79562;SDS011;69026;50.980;11.314;2023-05-25T12:23:52;4.03;;;2.00;;
79562;SDS011;69026;50.980;11.314;2023-05-25T12:26:19;4.65;;;1.98;;
79562;SDS011;69026;50.980;11.314;2023-05-25T12:29:01;5.93;;;2.10;;
79562;SDS011;69026;50.980;11.314;2023-05-25T12:31:32;6.22;;;2.17;;
79562;SDS011;69026;50.980;11.314;2023-05-25T12:36:35;3.60;;;1.40;;
79562;SDS011;69026;50.980;11.314;2023-05-25T12:39:04;4.10;;;2.10;;
79562;SDS011;69026;50.980;11.314;2023-05-25T12:41:40;4.05;;;2.20;;
79562;SDS011;69026;50.980;11.314;2023-05-25T12:46:46;4.25;;;2.28;;
79562;SDS011;69026;50.980;11.314;2023-05-25T12:51:47;5.97;;;2.03;;
79562;SDS011;69026;50.980;11.314;2023-05-25T12:54:13;7.30;;;2.40;;
79562;SDS011;69026;50.980;11.314;2023-05-25T12:56:57;3.35;;;2.22;;
79562;SDS011;69026;50.980;11.314;2023-05-25T12:59:24;5.13;;;1.88;;
79562;SDS011;69026;50.980;11.314;2023-05-25T13:01:49;3.17;;;1.83;;
79562;SDS011;69026;50.980;11.314;2023-05-25T13:04:15;4.55;;;1.67;;
79562;SDS011;69026;50.980;11.314;2023-05-25T13:06:41;3.90;;;1.70;;
79562;SDS011;69026;50.980;11.314;2023-05-25T13:09:07;6.47;;;1.70;;
79562;SDS011;69026;50.980;11.314;2023-05-25T13:11:33;2.83;;;1.67;;
79562;SDS011;69026;50.980;11.314;2023-05-25T13:13:59;6.18;;;2.35;;
79562;SDS011;69026;50.980;11.314;2023-05-25T13:16:25;5.70;;;1.48;;
79562;SDS011;69026;50.980;11.314;2023-05-25T13:18:52;2.92;;;1.83;;
79562;SDS011;69026;50.980;11.314;2023-05-25T13:21:17;4.63;;;1.45;;
79562;SDS011;69026;50.980;11.314;2023-05-25T13:23:43;5.30;;;2.15;;
79562;SDS011;69026;50.980;11.314;2023-05-25T13:26:09;4.15;;;2.00;;
79562;SDS011;69026;50.980;11.314;2023-05-25T13:28:35;3.97;;;2.00;;
79562;SDS011;69026;50.980;11.314;2023-05-25T13:31:01;7.60;;;2.25;;
79562;SDS011;69026;50.980;11.314;2023-05-25T13:33:26;6.35;;;2.00;;
79562;SDS011;69026;50.980;11.314;2023-05-25T13:35:52;3.00;;;1.90;;
79562;SDS011;69026;50.980;11.314;2023-05-25T13:38:35;5.47;;;1.90;;
79562;SDS011;69026;50.980;11.314;2023-05-25T13:41:02;3.60;;;1.95;;
79562;SDS011;69026;50.980;11.314;2023-05-25T13:43:28;4.35;;;2.13;;
79562;SDS011;69026;50.980;11.314;2023-05-25T13:45:54;5.03;;;2.15;;
79562;SDS011;69026;50.980;11.314;2023-05-25T13:48:22;6.32;;;1.90;;
79562;SDS011;69026;50.980;11.314;2023-05-25T13:50:48;4.30;;;1.98;;
79562;SDS011;69026;50.980;11.314;2023-05-25T13:53:14;5.13;;;2.10;;
79562;SDS011;69026;50.980;11.314;2023-05-25T13:55:40;6.60;;;2.80;;
79562;SDS011;69026;50.980;11.314;2023-05-25T13:58:07;4.40;;;1.42;;
79562;SDS011;69026;50.980;11.314;2023-05-25T14:00:33;6.32;;;1.70;;
79562;SDS011;69026;50.980;11.314;2023-05-25T14:02:59;3.70;;;2.13;;
79562;SDS011;69026;50.980;11.314;2023-05-25T14:05:25;4.15;;;1.73;;
79562;SDS011;69026;50.980;11.314;2023-05-25T14:07:51;3.17;;;1.70;;
79562;SDS011;69026;50.980;11.314;2023-05-25T14:10:17;7.28;;;2.00;;
79562;SDS011;69026;50.980;11.314;2023-05-25T14:12:43;2.45;;;1.50;;
79562;SDS011;69026;50.980;11.314;2023-05-25T14:15:09;2.28;;;1.50;;
79562;SDS011;69026;50.980;11.314;2023-05-25T14:17:35;3.83;;;1.65;;
79562;SDS011;69026;50.980;11.314;2023-05-25T14:20:01;5.50;;;1.77;;
79562;SDS011;69026;50.980;11.314;2023-05-25T14:22:30;4.00;;;1.73;;
79562;SDS011;69026;50.980;11.314;2023-05-25T14:24:56;3.13;;;1.88;;
79562;SDS011;69026;50.980;11.314;2023-05-25T14:27:22;4.75;;;1.60;;
79562;SDS011;69026;50.980;11.314;2023-05-25T14:29:49;4.30;;;1.60;;
79562;SDS011;69026;50.980;11.314;2023-05-25T14:32:16;2.80;;;1.70;;
79562;SDS011;69026;50.980;11.314;2023-05-25T14:34:42;3.70;;;1.70;;
79562;SDS011;69026;50.980;11.314;2023-05-25T14:37:09;4.90;;;1.63;;
79562;SDS011;69026;50.980;11.314;2023-05-25T14:39:35;3.95;;;1.80;;
79562;SDS011;69026;50.980;11.314;2023-05-25T14:42:02;5.45;;;1.70;;
79562;SDS011;69026;50.980;11.314;2023-05-25T14:44:28;4.53;;;2.00;;
79562;SDS011;69026;50.980;11.314;2023-05-25T14:46:54;5.35;;;1.73;;
79562;SDS011;69026;50.980;11.314;2023-05-25T14:49:20;4.07;;;1.65;;
79562;SDS011;69026;50.980;11.314;2023-05-25T14:51:52;5.53;;;1.70;;
79562;SDS011;69026;50.980;11.314;2023-05-25T14:54:18;6.55;;;2.33;;
79562;SDS011;69026;50.980;11.314;2023-05-25T14:56:45;7.05;;;2.00;;
79562;SDS011;69026;50.980;11.314;2023-05-25T14:59:12;3.88;;;1.77;;
79562;SDS011;69026;50.980;11.314;2023-05-25T15:01:38;6.40;;;3.20;;
79562;SDS011;69026;50.980;11.314;2023-05-25T15:04:04;15.23;;;5.80;;
79562;SDS011;69026;50.980;11.314;2023-05-25T15:06:31;22.20;;;9.00;;
79562;SDS011;69026;50.980;11.314;2023-05-25T15:08:56;21.20;;;8.60;;
79562;SDS011;69026;50.980;11.314;2023-05-25T15:11:22;21.25;;;8.27;;
79562;SDS011;69026;50.980;11.314;2023-05-25T15:13:48;18.25;;;7.65;;